• Join FlightAware (Why Join?)
  • Login
  • US Flag 
09:27AM EST


 

Airport Tracker/Info


-or-


 

Live Flight TrackerFlight Track Log ✈ CTL61 ✈ 15-Apr-2013 ✈ KBUY - KBLF

Flight Track Log - Related Links

Times and Time Zones

All times are in EDT time to prevent confusion due to time zone crossing. See the CTL61 flight status page for this flight to view local times or setup timezone preferences in your user account.

Time Position Orientation Groundspeed Altitude Reporting Facility
EDT Latitude Longitude Course Direction KTS MPH feet Rate Location/Type
09:10PM 36.2165 -79.7058 312° West  Level FlightAware Approximate
09:11PM 36.2466 -79.7468 312° West  Level FlightAware Approximate
09:12PM 36.2767 -79.7879 312° West  Level FlightAware Approximate
09:13PM 36.3069 -79.8289 312° West  Level FlightAware Approximate
09:14PM 36.3369 -79.8701 312° West  Level FlightAware Approximate
09:15PM 36.3670 -79.9112 312° West  Level FlightAware Approximate
09:16PM 36.3971 -79.9524 312° West  Level FlightAware Approximate
09:17PM 36.4271 -79.9936 312° West  Level FlightAware Approximate
09:17PM 36.4542 -79.9839 312° West 166 191 8,000  Level Atlanta Center
09:18PM 36.4571 -80.0349 312° West  Level FlightAware Approximate
09:18PM 36.4828 -80.0261 310° West 166 191 8,000  Level Atlanta Center
09:19PM 36.4871 -80.0761 312° West  Level FlightAware Approximate
09:19PM 36.5114 -80.0714 308° West 166 191 8,000  Level Atlanta Center
09:20PM 36.5171 -80.1174 312° West  Level FlightAware Approximate
09:20PM 36.5353 -80.1011 315° West 164 189 8,000  Level Atlanta Center
09:21PM 36.5471 -80.1588 312° West  Level FlightAware Approximate
09:21PM 36.5678 -80.1433 314° West 164 189 8,000  Level Atlanta Center
09:22PM 36.5771 -80.2001 312° West  Level FlightAware Approximate
09:22PM 36.5964 -80.1886 308° West 163 188 8,000  Level Atlanta Center
09:23PM 36.6247 -80.2261 313° West 163 188 8,000  Level Atlanta Center
09:24PM 36.6553 -80.2686 312° West 163 188 8,000  Level Atlanta Center
09:25PM 36.6836 -80.3111 310° West 158 182 8,000  Level Atlanta Center
09:26PM 36.7119 -80.3539 310° West 158 182 8,000  Level Atlanta Center
09:27PM 36.7403 -80.3967 310° West 158 182 8,000  Level Atlanta Center
09:28PM 36.7644 -80.4319 311° West 153 176 8,100  Climbing Atlanta Center
09:29PM 36.7928 -80.4719 312° West 153 176 8,100  Level Atlanta Center
09:30PM 36.8189 -80.5150 307° West 153 176 8,100  Level Atlanta Center
09:31PM 36.8492 -80.5525 315° West 153 176 8,100  Level Atlanta Center
09:32PM 36.8797 -80.5978 310° West 153 176 8,100  Level Atlanta Center
09:33PM 36.9078 -80.6381 311° West 153 176 8,100  Level Atlanta Center
09:34PM 36.9342 -80.6811 307° West 153 176 8,100  Level Atlanta Center
09:35PM 36.9644 -80.7214 313° West 153 176 8,100 -60 Level Atlanta Center
09:37PM 37.0183 -80.7986 311° West 153 176 8,000 -60 Descending Indianapolis Center
09:38PM 37.0456 -80.8367 312° West 152 175 8,000 -60 Level Indianapolis Center
09:39PM 37.0722 -80.8769 310° West 153 176 7,900  Descending Indianapolis Center
09:40PM 37.1081 -80.9078 326° Northwest 160 184 8,000  Climbing Indianapolis Center
09:41PM 37.1489 -80.9461 323° Northwest 158 182 7,900 -240 Descending Indianapolis Center
09:42PM 37.1878 -80.9714 333° Northwest 160 184 7,600 -420 Descending Indianapolis Center
09:43PM 37.2292 -81.0017 330° Northwest 172 198 7,100 -480 Descending Indianapolis Center
09:44PM 37.2808 -80.9975 North 189 217 6,700 -300 Descending Indianapolis Center
09:45PM 37.3394 -80.9883 North 179 206 6,500 -120 Descending Indianapolis Center
09:46PM 37.3853 -80.9919 356° North 170 196 6,500 -240 Level Indianapolis Center
09:47PM 37.4083 -81.0381 302° West 161 185 6,100 -600 Descending Indianapolis Center
09:48PM 37.4025 -81.0908 262° West 160 184 5,400 -780 Descending Indianapolis Center
09:49PM 37.3683 -81.1250 218° Southwest 158 182 4,600 -660 Descending Indianapolis Center
09:50PM 37.3372 -81.1572 219° Southwest 143 165 4,100 -540 Descending Indianapolis Center